sensor_id;sensor_type;location;lat;lon;timestamp;pressure;altitude;pressure_sealevel;temperature
73685;BMP280;61985;51.070;14.064;2024-02-21T00:01:47;99282.78;;;5.72
73685;BMP280;61985;51.070;14.064;2024-02-21T00:04:12;99270.56;;;5.74
73685;BMP280;61985;51.070;14.064;2024-02-21T00:06:38;99270.59;;;5.78
73685;BMP280;61985;51.070;14.064;2024-02-21T00:09:03;99268.69;;;5.78
73685;BMP280;61985;51.070;14.064;2024-02-21T00:11:29;99267.56;;;5.79
73685;BMP280;61985;51.070;14.064;2024-02-21T00:13:55;99267.91;;;5.81
73685;BMP280;61985;51.070;14.064;2024-02-21T00:16:20;99259.91;;;5.85
73685;BMP280;61985;51.070;14.064;2024-02-21T00:18:45;99257.25;;;5.85
73685;BMP280;61985;51.070;14.064;2024-02-21T00:21:11;99256.09;;;5.86
73685;BMP280;61985;51.070;14.064;2024-02-21T00:23:44;99254.16;;;5.83
73685;BMP280;61985;51.070;14.064;2024-02-21T00:26:11;99253.44;;;5.86
73685;BMP280;61985;51.070;14.064;2024-02-21T00:28:37;99247.31;;;5.85
73685;BMP280;61985;51.070;14.064;2024-02-21T00:31:03;99248.44;;;5.84
73685;BMP280;61985;51.070;14.064;2024-02-21T00:33:28;99243.47;;;5.83
73685;BMP280;61985;51.070;14.064;2024-02-21T00:35:54;99237.75;;;5.81
73685;BMP280;61985;51.070;14.064;2024-02-21T00:38:19;99238.13;;;5.79
73685;BMP280;61985;51.070;14.064;2024-02-21T00:40:44;99235.03;;;5.77
73685;BMP280;61985;51.070;14.064;2024-02-21T00:43:10;99230.47;;;5.78
73685;BMP280;61985;51.070;14.064;2024-02-21T00:45:35;99226.63;;;5.75
73685;BMP280;61985;51.070;14.064;2024-02-21T00:48:00;99226.63;;;5.75
73685;BMP280;61985;51.070;14.064;2024-02-21T00:50:26;99226.63;;;5.72
73685;BMP280;61985;51.070;14.064;2024-02-21T00:52:51;99222.03;;;5.72
73685;BMP280;61985;51.070;14.064;2024-02-21T00:55:17;99221.28;;;5.72
73685;BMP280;61985;51.070;14.064;2024-02-21T00:57:42;99220.47;;;5.71
73685;BMP280;61985;51.070;14.064;2024-02-21T01:00:08;99214.75;;;5.73
73685;BMP280;61985;51.070;14.064;2024-02-21T01:02:33;99207.53;;;5.73
73685;BMP280;61985;51.070;14.064;2024-02-21T01:05:00;99208.66;;;5.72
73685;BMP280;61985;51.070;14.064;2024-02-21T01:07:25;99205.97;;;5.72
73685;BMP280;61985;51.070;14.064;2024-02-21T01:09:51;99206.00;;;5.76
73685;BMP280;61985;51.070;14.064;2024-02-21T01:12:17;99195.69;;;5.74
73685;BMP280;61985;51.070;14.064;2024-02-21T01:14:42;99193.78;;;5.75
73685;BMP280;61985;51.070;14.064;2024-02-21T01:17:08;99194.94;;;5.77
73685;BMP280;61985;51.070;14.064;2024-02-21T01:19:33;99188.44;;;5.75
73685;BMP280;61985;51.070;14.064;2024-02-21T01:21:59;99193.81;;;5.78
73685;BMP280;61985;51.070;14.064;2024-02-21T01:24:24;99185.38;;;5.76
73685;BMP280;61985;51.070;14.064;2024-02-21T01:26:49;99174.69;;;5.76
73685;BMP280;61985;51.070;14.064;2024-02-21T01:29:15;99171.66;;;5.78
73685;BMP280;61985;51.070;14.064;2024-02-21T01:31:40;99172.78;;;5.80
73685;BMP280;61985;51.070;14.064;2024-02-21T01:34:06;99164.38;;;5.78
73685;BMP280;61985;51.070;14.064;2024-02-21T01:36:31;99161.69;;;5.82
73685;BMP280;61985;51.070;14.064;2024-02-21T01:38:56;99164.00;;;5.80
73685;BMP280;61985;51.070;14.064;2024-02-21T01:41:22;99160.56;;;5.79
73685;BMP280;61985;51.070;14.064;2024-02-21T01:43:47;99155.59;;;5.78
73685;BMP280;61985;51.070;14.064;2024-02-21T01:46:13;99148.72;;;5.77
73685;BMP280;61985;51.070;14.064;2024-02-21T01:48:38;99143.72;;;5.75
73685;BMP280;61985;51.070;14.064;2024-02-21T01:51:04;99141.81;;;5.76
73685;BMP280;61985;51.070;14.064;2024-02-21T01:53:34;99145.66;;;5.78
73685;BMP280;61985;51.070;14.064;2024-02-21T01:56:00;99136.09;;;5.74
73685;BMP280;61985;51.070;14.064;2024-02-21T01:58:28;99127.69;;;5.75
73685;BMP280;61985;51.070;14.064;2024-02-21T02:00:56;99132.66;;;5.77
73685;BMP280;61985;51.070;14.064;2024-02-21T02:03:21;99123.50;;;5.78
73685;BMP280;61985;51.070;14.064;2024-02-21T02:05:49;99115.47;;;5.78
73685;BMP280;61985;51.070;14.064;2024-02-21T02:08:16;99124.25;;;5.78
73685;BMP280;61985;51.070;14.064;2024-02-21T02:10:42;99118.91;;;5.78
73685;BMP280;61985;51.070;14.064;2024-02-21T02:13:07;99129.97;;;5.73
73685;BMP280;61985;51.070;14.064;2024-02-21T02:15:47;99115.06;;;5.68
73685;BMP280;61985;51.070;14.064;2024-02-21T02:18:14;99111.59;;;5.64
73685;BMP280;61985;51.070;14.064;2024-02-21T02:20:40;99106.25;;;5.61
73685;BMP280;61985;51.070;14.064;2024-02-21T02:23:33;99113.09;;;5.55
73685;BMP280;61985;51.070;14.064;2024-02-21T02:25:59;99109.59;;;5.50
73685;BMP280;61985;51.070;14.064;2024-02-21T02:28:26;99106.94;;;5.47
73685;BMP280;61985;51.070;14.064;2024-02-21T02:30:52;99102.72;;;5.46
73685;BMP280;61985;51.070;14.064;2024-02-21T02:33:18;99103.47;;;5.43
73685;BMP280;61985;51.070;14.064;2024-02-21T02:35:43;99103.47;;;5.43
73685;BMP280;61985;51.070;14.064;2024-02-21T02:38:09;99104.97;;;5.40
73685;BMP280;61985;51.070;14.064;2024-02-21T02:40:36;99098.88;;;5.40
73685;BMP280;61985;51.070;14.064;2024-02-21T02:43:01;99098.88;;;5.43
73685;BMP280;61985;51.070;14.064;2024-02-21T02:45:27;99098.13;;;5.43
73685;BMP280;61985;51.070;14.064;2024-02-21T02:47:53;99098.88;;;5.43
73685;BMP280;61985;51.070;14.064;2024-02-21T02:50:22;99098.16;;;5.46
73685;BMP280;61985;51.070;14.064;2024-02-21T02:52:48;99099.31;;;5.49
73685;BMP280;61985;51.070;14.064;2024-02-21T02:55:13;99092.44;;;5.51
73685;BMP280;61985;51.070;14.064;2024-02-21T02:57:39;99088.22;;;5.50
73685;BMP280;61985;51.070;14.064;2024-02-21T03:00:07;99087.47;;;5.54
73685;BMP280;61985;51.070;14.064;2024-02-21T03:02:34;99087.88;;;5.56
73685;BMP280;61985;51.070;14.064;2024-02-21T03:04:59;99085.22;;;5.59
73685;BMP280;61985;51.070;14.064;2024-02-21T03:07:25;99086.78;;;5.67
73685;BMP280;61985;51.070;14.064;2024-02-21T03:09:51;99081.03;;;5.65
73685;BMP280;61985;51.070;14.064;2024-02-21T03:12:17;99084.09;;;5.67
73685;BMP280;61985;51.070;14.064;2024-02-21T03:14:50;99084.09;;;5.67
73685;BMP280;61985;51.070;14.064;2024-02-21T03:17:15;99080.69;;;5.74
73685;BMP280;61985;51.070;14.064;2024-02-21T03:19:41;99078.00;;;5.74
73685;BMP280;61985;51.070;14.064;2024-02-21T03:22:06;99079.94;;;5.74
73685;BMP280;61985;51.070;14.064;2024-02-21T03:24:32;99070.34;;;5.69
73685;BMP280;61985;51.070;14.064;2024-02-21T03:26:58;99074.94;;;5.68
73685;BMP280;61985;51.070;14.064;2024-02-21T03:29:24;99068.44;;;5.69
73685;BMP280;61985;51.070;14.064;2024-02-21T03:31:50;99078.75;;;5.67
73685;BMP280;61985;51.070;14.064;2024-02-21T03:34:15;99072.25;;;5.65
73685;BMP280;61985;51.070;14.064;2024-02-21T03:36:41;99071.09;;;5.66
73685;BMP280;61985;51.070;14.064;2024-02-21T03:39:06;99079.13;;;5.66
73685;BMP280;61985;51.070;14.064;2024-02-21T03:41:33;99076.47;;;5.62
73685;BMP280;61985;51.070;14.064;2024-02-21T03:43:59;99079.50;;;5.61
73685;BMP280;61985;51.070;14.064;2024-02-21T03:46:24;99079.50;;;5.61
73685;BMP280;61985;51.070;14.064;2024-02-21T03:48:50;99073.00;;;5.62
73685;BMP280;61985;51.070;14.064;2024-02-21T03:51:16;99066.47;;;5.56
73685;BMP280;61985;51.070;14.064;2024-02-21T03:53:41;99063.81;;;5.56
73685;BMP280;61985;51.070;14.064;2024-02-21T03:56:07;99070.31;;;5.55
73685;BMP280;61985;51.070;14.064;2024-02-21T03:58:33;99068.03;;;5.57
73685;BMP280;61985;51.070;14.064;2024-02-21T04:01:02;99058.09;;;5.57
73685;BMP280;61985;51.070;14.064;2024-02-21T04:03:28;99050.84;;;5.58
73685;BMP280;61985;51.070;14.064;2024-02-21T04:05:54;99056.22;;;5.61
73685;BMP280;61985;51.070;14.064;2024-02-21T04:08:19;99053.16;;;5.59
73685;BMP280;61985;51.070;14.064;2024-02-21T04:10:45;99050.47;;;5.59
73685;BMP280;61985;51.070;14.064;2024-02-21T04:13:10;99045.88;;;5.60
73685;BMP280;61985;51.070;14.064;2024-02-21T04:15:36;99052.78;;;5.64
73685;BMP280;61985;51.070;14.064;2024-02-21T04:18:02;99046.66;;;5.60
73685;BMP280;61985;51.070;14.064;2024-02-21T04:20:28;99046.25;;;5.58
73685;BMP280;61985;51.070;14.064;2024-02-21T04:22:54;99042.41;;;5.56
73685;BMP280;61985;51.070;14.064;2024-02-21T04:25:20;99039.75;;;5.56
73685;BMP280;61985;51.070;14.064;2024-02-21T04:27:46;99041.28;;;5.57
73685;BMP280;61985;51.070;14.064;2024-02-21T04:30:11;99037.13;;;5.59
73685;BMP280;61985;51.070;14.064;2024-02-21T04:32:37;99034.44;;;5.59
73685;BMP280;61985;51.070;14.064;2024-02-21T04:35:03;99038.66;;;5.64
73685;BMP280;61985;51.070;14.064;2024-02-21T04:37:28;99038.66;;;5.64
73685;BMP280;61985;51.070;14.064;2024-02-21T04:39:54;99030.63;;;5.64
73685;BMP280;61985;51.070;14.064;2024-02-21T04:42:19;99034.06;;;5.64
73685;BMP280;61985;51.070;14.064;2024-02-21T04:44:45;99031.00;;;5.66
73685;BMP280;61985;51.070;14.064;2024-02-21T04:47:10;99029.88;;;5.70
73685;BMP280;61985;51.070;14.064;2024-02-21T04:49:36;99025.28;;;5.71
73685;BMP280;61985;51.070;14.064;2024-02-21T04:52:01;99028.75;;;5.75
73685;BMP280;61985;51.070;14.064;2024-02-21T04:54:27;99037.91;;;5.74
73685;BMP280;61985;51.070;14.064;2024-02-21T04:56:52;99036.38;;;5.73
73685;BMP280;61985;51.070;14.064;2024-02-21T04:59:18;99031.78;;;5.77
73685;BMP280;61985;51.070;14.064;2024-02-21T05:01:43;99033.72;;;5.73
73685;BMP280;61985;51.070;14.064;2024-02-21T05:04:09;99025.69;;;5.73
73685;BMP280;61985;51.070;14.064;2024-02-21T05:06:38;99025.28;;;5.71
73685;BMP280;61985;51.070;14.064;2024-02-21T05:09:04;99027.19;;;5.70
73685;BMP280;61985;51.070;14.064;2024-02-21T05:11:30;99016.50;;;5.67
73685;BMP280;61985;51.070;14.064;2024-02-21T05:13:56;99019.16;;;5.63
73685;BMP280;61985;51.070;14.064;2024-02-21T05:16:21;99017.63;;;5.59
73685;BMP280;61985;51.070;14.064;2024-02-21T05:18:47;99017.59;;;5.55
73685;BMP280;61985;51.070;14.064;2024-02-21T05:21:12;99018.34;;;5.56
73685;BMP280;61985;51.070;14.064;2024-02-21T05:23:38;99013.38;;;5.50
73685;BMP280;61985;51.070;14.064;2024-02-21T05:26:05;99010.34;;;5.48
73685;BMP280;61985;51.070;14.064;2024-02-21T05:28:31;99011.47;;;5.47
73685;BMP280;61985;51.070;14.064;2024-02-21T05:30:56;99022.56;;;5.49
73685;BMP280;61985;51.070;14.064;2024-02-21T05:33:21;99015.69;;;5.56
73685;BMP280;61985;51.070;14.064;2024-02-21T05:35:47;99003.09;;;5.60
73685;BMP280;61985;51.070;14.064;2024-02-21T05:38:16;99008.84;;;5.62
73685;BMP280;61985;51.070;14.064;2024-02-21T05:40:41;99000.44;;;5.63
73685;BMP280;61985;51.070;14.064;2024-02-21T05:43:07;98999.69;;;5.70
73685;BMP280;61985;51.070;14.064;2024-02-21T05:45:33;99005.06;;;5.74
73685;BMP280;61985;51.070;14.064;2024-02-21T05:47:58;98995.53;;;5.76
73685;BMP280;61985;51.070;14.064;2024-02-21T05:50:23;98995.16;;;5.78
73685;BMP280;61985;51.070;14.064;2024-02-21T05:52:53;99000.47;;;5.81
73685;BMP280;61985;51.070;14.064;2024-02-21T05:55:19;98991.31;;;5.82
73685;BMP280;61985;51.070;14.064;2024-02-21T05:57:45;98983.28;;;5.89
73685;BMP280;61985;51.070;14.064;2024-02-21T06:00:10;98989.06;;;5.95
73685;BMP280;61985;51.070;14.064;2024-02-21T06:02:36;98981.78;;;5.96
73685;BMP280;61985;51.070;14.064;2024-02-21T06:05:01;98977.94;;;5.97
73685;BMP280;61985;51.070;14.064;2024-02-21T06:07:27;98980.66;;;6.04
73685;BMP280;61985;51.070;14.064;2024-02-21T06:09:52;98979.09;;;6.03
73685;BMP280;61985;51.070;14.064;2024-02-21T06:12:18;98977.59;;;6.05
73685;BMP280;61985;51.070;14.064;2024-02-21T06:14:43;98973.75;;;6.03
73685;BMP280;61985;51.070;14.064;2024-02-21T06:17:08;98976.44;;;6.06
73685;BMP280;61985;51.070;14.064;2024-02-21T06:19:34;98968.78;;;6.05
73685;BMP280;61985;51.070;14.064;2024-02-21T06:21:59;98966.53;;;6.07
73685;BMP280;61985;51.070;14.064;2024-02-21T06:24:25;98967.28;;;6.07
73685;BMP280;61985;51.070;14.064;2024-02-21T06:26:50;98970.69;;;6.08
73685;BMP280;61985;51.070;14.064;2024-02-21T06:29:15;98964.97;;;6.10
73685;BMP280;61985;51.070;14.064;2024-02-21T06:31:41;98961.53;;;6.09
73685;BMP280;61985;51.070;14.064;2024-02-21T06:34:06;98950.09;;;6.09
73685;BMP280;61985;51.070;14.064;2024-02-21T06:36:32;98959.22;;;6.11
73685;BMP280;61985;51.070;14.064;2024-02-21T06:38:58;98951.97;;;6.12
73685;BMP280;61985;51.070;14.064;2024-02-21T06:41:24;98947.78;;;6.11
73685;BMP280;61985;51.070;14.064;2024-02-21T06:43:49;98948.16;;;6.09
73685;BMP280;61985;51.070;14.064;2024-02-21T06:46:27;98949.31;;;6.08
73685;BMP280;61985;51.070;14.064;2024-02-21T06:48:56;98943.16;;;6.11
73685;BMP280;61985;51.070;14.064;2024-02-21T06:51:22;98947.38;;;6.12
73685;BMP280;61985;51.070;14.064;2024-02-21T06:53:48;98947.75;;;6.14
73685;BMP280;61985;51.070;14.064;2024-02-21T06:56:13;98946.63;;;6.12
73685;BMP280;61985;51.070;14.064;2024-02-21T06:58:39;98949.28;;;6.12
73685;BMP280;61985;51.070;14.064;2024-02-21T07:01:04;98949.28;;;6.15
73685;BMP280;61985;51.070;14.064;2024-02-21T07:03:31;98953.09;;;6.14
73685;BMP280;61985;51.070;14.064;2024-02-21T07:05:56;98951.59;;;6.20
73685;BMP280;61985;51.070;14.064;2024-02-21T07:08:21;98958.47;;;6.21
73685;BMP280;61985;51.070;14.064;2024-02-21T07:10:47;98966.50;;;6.21
73685;BMP280;61985;51.070;14.064;2024-02-21T07:13:12;98974.91;;;6.23
73685;BMP280;61985;51.070;14.064;2024-02-21T07:15:38;98965.75;;;6.24
73685;BMP280;61985;51.070;14.064;2024-02-21T07:18:04;98958.09;;;6.23
73685;BMP280;61985;51.070;14.064;2024-02-21T07:20:29;98958.47;;;6.29
73685;BMP280;61985;51.070;14.064;2024-02-21T07:22:55;98958.09;;;6.30
73685;BMP280;61985;51.070;14.064;2024-02-21T07:25:20;98959.97;;;6.30
73685;BMP280;61985;51.070;14.064;2024-02-21T07:27:45;98959.97;;;6.30
73685;BMP280;61985;51.070;14.064;2024-02-21T07:30:11;98960.38;;;6.32
73685;BMP280;61985;51.070;14.064;2024-02-21T07:32:36;98958.09;;;6.34
73685;BMP280;61985;51.070;14.064;2024-02-21T07:35:02;98963.81;;;6.36
73685;BMP280;61985;51.070;14.064;2024-02-21T07:37:27;98953.84;;;6.40
73685;BMP280;61985;51.070;14.064;2024-02-21T07:39:53;98958.81;;;6.41
73685;BMP280;61985;51.070;14.064;2024-02-21T07:42:18;98962.25;;;6.42
73685;BMP280;61985;51.070;14.064;2024-02-21T07:44:45;98964.16;;;6.45
73685;BMP280;61985;51.070;14.064;2024-02-21T07:47:10;98965.34;;;6.44
73685;BMP280;61985;51.070;14.064;2024-02-21T07:49:45;98956.91;;;6.42
73685;BMP280;61985;51.070;14.064;2024-02-21T07:52:11;98968.00;;;6.44
73685;BMP280;61985;51.070;14.064;2024-02-21T07:54:36;98955.38;;;6.48
73685;BMP280;61985;51.070;14.064;2024-02-21T07:57:02;98947.31;;;6.59
73685;BMP280;61985;51.070;14.064;2024-02-21T07:59:28;98943.84;;;6.69
73685;BMP280;61985;51.070;14.064;2024-02-21T08:01:56;98938.03;;;6.89
73685;BMP280;61985;51.070;14.064;2024-02-21T08:04:22;98930.66;;;7.14
73685;BMP280;61985;51.070;14.064;2024-02-21T08:06:53;98924.47;;;7.28
73685;BMP280;61985;51.070;14.064;2024-02-21T08:09:24;98939.41;;;7.26
73685;BMP280;61985;51.070;14.064;2024-02-21T08:11:49;98945.91;;;7.21
73685;BMP280;61985;51.070;14.064;2024-02-21T08:14:15;98948.22;;;7.19
73685;BMP280;61985;51.070;14.064;2024-02-21T08:16:42;98943.66;;;7.16
73685;BMP280;61985;51.070;14.064;2024-02-21T08:19:07;98940.94;;;7.23
73685;BMP280;61985;51.070;14.064;2024-02-21T08:21:33;98937.50;;;7.26
73685;BMP280;61985;51.070;14.064;2024-02-21T08:23:58;98943.19;;;7.35
73685;BMP280;61985;51.070;14.064;2024-02-21T08:26:23;98937.34;;;7.44
73685;BMP280;61985;51.070;14.064;2024-02-21T08:28:49;98938.09;;;7.52
73685;BMP280;61985;51.070;14.064;2024-02-21T08:31:19;98932.69;;;7.59
73685;BMP280;61985;51.070;14.064;2024-02-21T08:33:45;98942.56;;;7.69
73685;BMP280;61985;51.070;14.064;2024-02-21T08:36:19;98943.38;;;7.63
73685;BMP280;61985;51.070;14.064;2024-02-21T08:38:48;98934.22;;;7.56
73685;BMP280;61985;51.070;14.064;2024-02-21T08:41:14;98935.41;;;7.52
73685;BMP280;61985;51.070;14.064;2024-02-21T08:43:39;98932.38;;;7.46
73685;BMP280;61985;51.070;14.064;2024-02-21T08:46:10;98936.59;;;7.47
73685;BMP280;61985;51.070;14.064;2024-02-21T08:48:52;98926.63;;;7.48
73685;BMP280;61985;51.070;14.064;2024-02-21T08:51:23;98928.53;;;7.47
73685;BMP280;61985;51.070;14.064;2024-02-21T08:53:48;98921.63;;;7.53
73685;BMP280;61985;51.070;14.064;2024-02-21T08:56:15;98928.16;;;7.52
73685;BMP280;61985;51.070;14.064;2024-02-21T08:58:41;98937.38;;;7.48
73685;BMP280;61985;51.070;14.064;2024-02-21T09:01:09;98936.59;;;7.44
73685;BMP280;61985;51.070;14.064;2024-02-21T09:03:38;98932.03;;;7.40
73685;BMP280;61985;51.070;14.064;2024-02-21T09:06:07;98942.00;;;7.36
73685;BMP280;61985;51.070;14.064;2024-02-21T09:08:33;98938.91;;;7.42
73685;BMP280;61985;51.070;14.064;2024-02-21T09:11:02;98923.63;;;7.38
73685;BMP280;61985;51.070;14.064;2024-02-21T09:13:28;98920.97;;;7.38
73685;BMP280;61985;51.070;14.064;2024-02-21T09:15:55;98922.88;;;7.34
73685;BMP280;61985;51.070;14.064;2024-02-21T09:18:23;98919.78;;;7.39
73685;BMP280;61985;51.070;14.064;2024-02-21T09:20:49;98924.78;;;7.37
73685;BMP280;61985;51.070;14.064;2024-02-21T09:23:14;98922.84;;;7.42
73685;BMP280;61985;51.070;14.064;2024-02-21T09:25:43;98918.97;;;7.43
73685;BMP280;61985;51.070;14.064;2024-02-21T09:28:08;98908.63;;;7.48
73685;BMP280;61985;51.070;14.064;2024-02-21T09:30:36;98907.44;;;7.53
73685;BMP280;61985;51.070;14.064;2024-02-21T09:33:03;98912.38;;;7.58
73685;BMP280;61985;51.070;14.064;2024-02-21T09:35:30;98919.63;;;7.61
73685;BMP280;61985;51.070;14.064;2024-02-21T09:37:56;98923.84;;;7.62
73685;BMP280;61985;51.070;14.064;2024-02-21T09:40:22;98924.22;;;7.64
73685;BMP280;61985;51.070;14.064;2024-02-21T09:42:59;98925.78;;;7.58
73685;BMP280;61985;51.070;14.064;2024-02-21T09:45:28;98920.81;;;7.56
73685;BMP280;61985;51.070;14.064;2024-02-21T09:50:43;98935.41;;;7.52
73685;BMP280;61985;51.070;14.064;2024-02-21T09:53:11;98931.22;;;7.51
73685;BMP280;61985;51.070;14.064;2024-02-21T09:55:38;98928.94;;;7.46
73685;BMP280;61985;51.070;14.064;2024-02-21T09:58:07;98927.03;;;7.46
73685;BMP280;61985;51.070;14.064;2024-02-21T10:00:32;98927.03;;;7.46
73685;BMP280;61985;51.070;14.064;2024-02-21T10:03:02;98932.00;;;7.48
73685;BMP280;61985;51.070;14.064;2024-02-21T10:05:37;98925.09;;;7.47
73685;BMP280;61985;51.070;14.064;2024-02-21T10:08:04;98926.25;;;7.46
73685;BMP280;61985;51.070;14.064;2024-02-21T10:10:50;98920.50;;;7.44
73685;BMP280;61985;51.070;14.064;2024-02-21T10:13:29;98925.50;;;7.45
73685;BMP280;61985;51.070;14.064;2024-02-21T10:16:07;98928.56;;;7.44
73685;BMP280;61985;51.070;14.064;2024-02-21T10:18:33;98933.91;;;7.44
73685;BMP280;61985;51.070;14.064;2024-02-21T10:21:05;98928.53;;;7.47
73685;BMP280;61985;51.070;14.064;2024-02-21T10:24:04;98923.94;;;7.44
73685;BMP280;61985;51.070;14.064;2024-02-21T10:26:30;98925.09;;;7.47
73685;BMP280;61985;51.070;14.064;2024-02-21T10:28:56;98931.22;;;7.47
73685;BMP280;61985;51.070;14.064;2024-02-21T10:31:26;98926.25;;;7.46
73685;BMP280;61985;51.070;14.064;2024-02-21T10:33:57;98918.97;;;7.43
73685;BMP280;61985;51.070;14.064;2024-02-21T10:36:23;98930.09;;;7.45
73685;BMP280;61985;51.070;14.064;2024-02-21T10:38:52;98926.63;;;7.44
73685;BMP280;61985;51.070;14.064;2024-02-21T10:41:19;98928.94;;;7.46
73685;BMP280;61985;51.070;14.064;2024-02-21T10:43:56;98925.09;;;7.47
73685;BMP280;61985;51.070;14.064;2024-02-21T10:46:23;98920.88;;;7.46
73685;BMP280;61985;51.070;14.064;2024-02-21T10:49:22;98920.88;;;7.49
73685;BMP280;61985;51.070;14.064;2024-02-21T10:51:53;98918.19;;;7.49
73685;BMP280;61985;51.070;14.064;2024-02-21T10:57:06;98906.69;;;7.52
73685;BMP280;61985;51.070;14.064;2024-02-21T10:59:34;98892.91;;;7.50
73685;BMP280;61985;51.070;14.064;2024-02-21T11:01:59;98896.31;;;7.54
73685;BMP280;61985;51.070;14.064;2024-02-21T11:04:25;98893.59;;;7.62
73685;BMP280;61985;51.070;14.064;2024-02-21T11:06:51;98890.13;;;7.65
73685;BMP280;61985;51.070;14.064;2024-02-21T11:09:17;98885.91;;;7.64
73685;BMP280;61985;51.070;14.064;2024-02-21T11:11:45;98890.13;;;7.65
73685;BMP280;61985;51.070;14.064;2024-02-21T11:14:17;98887.41;;;7.68
73685;BMP280;61985;51.070;14.064;2024-02-21T11:16:43;98880.88;;;7.66
73685;BMP280;61985;51.070;14.064;2024-02-21T11:19:18;98881.28;;;7.68
73685;BMP280;61985;51.070;14.064;2024-02-21T11:21:44;98866.69;;;7.72
73685;BMP280;61985;51.070;14.064;2024-02-21T11:24:09;98870.47;;;7.75
73685;BMP280;61985;51.070;14.064;2024-02-21T11:26:37;98866.59;;;7.79
73685;BMP280;61985;51.070;14.064;2024-02-21T11:29:02;98858.94;;;7.82
73685;BMP280;61985;51.070;14.064;2024-02-21T11:31:43;98856.59;;;7.84
73685;BMP280;61985;51.070;14.064;2024-02-21T11:34:12;98841.94;;;7.92
73685;BMP280;61985;51.070;14.064;2024-02-21T11:36:52;98849.56;;;7.97
73685;BMP280;61985;51.070;14.064;2024-02-21T11:39:22;98832.25;;;8.05
73685;BMP280;61985;51.070;14.064;2024-02-21T11:42:00;98843.34;;;8.07
73685;BMP280;61985;51.070;14.064;2024-02-21T11:44:26;98837.91;;;8.11
73685;BMP280;61985;51.070;14.064;2024-02-21T11:46:51;98826.38;;;8.14
73685;BMP280;61985;51.070;14.064;2024-02-21T11:49:17;98821.38;;;8.16
73685;BMP280;61985;51.070;14.064;2024-02-21T11:51:42;98817.91;;;8.19
73685;BMP280;61985;51.070;14.064;2024-02-21T11:54:07;98812.88;;;8.21
73685;BMP280;61985;51.070;14.064;2024-02-21T11:56:35;98807.84;;;8.23
73685;BMP280;61985;51.070;14.064;2024-02-21T11:59:00;98815.13;;;8.26
73685;BMP280;61985;51.070;14.064;2024-02-21T12:01:25;98809.00;;;8.26
73685;BMP280;61985;51.070;14.064;2024-02-21T12:03:51;98810.13;;;8.28
73685;BMP280;61985;51.070;14.064;2024-02-21T12:06:17;98800.06;;;8.36
73685;BMP280;61985;51.070;14.064;2024-02-21T12:08:47;98798.78;;;8.44
73685;BMP280;61985;51.070;14.064;2024-02-21T12:11:25;98796.72;;;8.55
73685;BMP280;61985;51.070;14.064;2024-02-21T12:14:04;98786.72;;;8.60
73685;BMP280;61985;51.070;14.064;2024-02-21T12:16:33;98782.13;;;8.57
73685;BMP280;61985;51.070;14.064;2024-02-21T12:19:00;98788.72;;;8.52
73685;BMP280;61985;51.070;14.064;2024-02-21T12:21:26;98781.44;;;8.52
73685;BMP280;61985;51.070;14.064;2024-02-21T12:23:55;98777.66;;;8.46
73685;BMP280;61985;51.070;14.064;2024-02-21T12:26:21;98770.78;;;8.45
73685;BMP280;61985;51.070;14.064;2024-02-21T12:28:46;98762.31;;;8.47
73685;BMP280;61985;51.070;14.064;2024-02-21T12:31:12;98759.94;;;8.52
73685;BMP280;61985;51.070;14.064;2024-02-21T12:33:37;98759.44;;;8.61
73685;BMP280;61985;51.070;14.064;2024-02-21T12:36:03;98755.53;;;8.66
73685;BMP280;61985;51.070;14.064;2024-02-21T12:38:29;98747.47;;;8.66
73685;BMP280;61985;51.070;14.064;2024-02-21T12:40:55;98745.13;;;8.68
73685;BMP280;61985;51.070;14.064;2024-02-21T12:43:20;98738.94;;;8.71
73685;BMP280;61985;51.070;14.064;2024-02-21T12:45:47;98734.50;;;8.84
73685;BMP280;61985;51.070;14.064;2024-02-21T12:48:13;98731.41;;;8.86
73685;BMP280;61985;51.070;14.064;2024-02-21T12:50:41;98719.38;;;8.94
73685;BMP280;61985;51.070;14.064;2024-02-21T12:53:13;98707.88;;;8.93
73685;BMP280;61985;51.070;14.064;2024-02-21T12:55:38;98711.00;;;8.92
73685;BMP280;61985;51.070;14.064;2024-02-21T12:58:04;98704.03;;;8.94
73685;BMP280;61985;51.070;14.064;2024-02-21T13:00:32;98699.22;;;9.06
73685;BMP280;61985;51.070;14.064;2024-02-21T13:02:57;98690.91;;;9.20
73685;BMP280;61985;51.070;14.064;2024-02-21T13:05:23;98683.34;;;9.75
73685;BMP280;61985;51.070;14.064;2024-02-21T13:07:48;98683.97;;;9.99
73685;BMP280;61985;51.070;14.064;2024-02-21T13:10:14;98688.41;;;10.26
73685;BMP280;61985;51.070;14.064;2024-02-21T13:12:39;98685.47;;;10.37
73685;BMP280;61985;51.070;14.064;2024-02-21T13:15:05;98675.25;;;10.61
73685;BMP280;61985;51.070;14.064;2024-02-21T13:17:31;98670.81;;;11.00
73685;BMP280;61985;51.070;14.064;2024-02-21T13:19:57;98672.09;;;11.24
73685;BMP280;61985;51.070;14.064;2024-02-21T13:22:22;98657.53;;;11.22
73685;BMP280;61985;51.070;14.064;2024-02-21T13:24:51;98656.97;;;11.14
73685;BMP280;61985;51.070;14.064;2024-02-21T13:27:16;98644.91;;;11.32
73685;BMP280;61985;51.070;14.064;2024-02-21T13:29:42;98644.19;;;11.44
73685;BMP280;61985;51.070;14.064;2024-02-21T13:32:07;98642.53;;;11.34
73685;BMP280;61985;51.070;14.064;2024-02-21T13:34:33;98635.47;;;11.53
73685;BMP280;61985;51.070;14.064;2024-02-21T13:36:59;98632.91;;;11.75
73685;BMP280;61985;51.070;14.064;2024-02-21T13:39:24;98638.50;;;11.93
73685;BMP280;61985;51.070;14.064;2024-02-21T13:41:50;98632.84;;;12.13
73685;BMP280;61985;51.070;14.064;2024-02-21T13:44:15;98627.31;;;12.30
73685;BMP280;61985;51.070;14.064;2024-02-21T13:46:41;98619.28;;;12.39
73685;BMP280;61985;51.070;14.064;2024-02-21T13:49:06;98610.75;;;12.40
73685;BMP280;61985;51.070;14.064;2024-02-21T13:51:33;98609.97;;;12.18
73685;BMP280;61985;51.070;14.064;2024-02-21T13:53:59;98610.44;;;12.38
73685;BMP280;61985;51.070;14.064;2024-02-21T13:56:25;98604.63;;;12.27
73685;BMP280;61985;51.070;14.064;2024-02-21T13:58:50;98603.44;;;12.41
73685;BMP280;61985;51.070;14.064;2024-02-21T14:01:16;98583.50;;;12.48
73685;BMP280;61985;51.070;14.064;2024-02-21T14:03:42;98599.06;;;12.43
73685;BMP280;61985;51.070;14.064;2024-02-21T14:06:07;98581.66;;;12.44
73685;BMP280;61985;51.070;14.064;2024-02-21T14:08:32;98582.63;;;12.73
73685;BMP280;61985;51.070;14.064;2024-02-21T14:10:59;98575.69;;;12.94
73685;BMP280;61985;51.070;14.064;2024-02-21T14:13:25;98571.81;;;12.95